Time;durP1;ratioP1;P1;durP2;ratioP2;P2;SDS_P1;SDS_P2;PMS_P1;PMS_P2;Temp;Humidity;BMP_temperature;BMP_pressure;BME280_temperature;BME280_humidity;BME280_pressure;Samples;Min_cycle;Max_cycle;Signal;HPM_P1;HPM_P2
2021/11/04 00:01:34;;;;;;;6.07;3.30;;;14.60;94.90;;;;;;5087940;28;20639;-73
2021/11/04 00:04:03;;;;;;;4.90;1.20;;;14.60;94.80;;;;;;5090426;28;20226;-73
2021/11/04 00:06:31;;;;;;;2.90;0.73;;;14.60;94.80;;;;;;5091624;28;20249;-72
2021/11/04 00:08:58;;;;;;;1.07;0.97;;;14.60;94.80;;;;;;5087104;28;20210;-72
2021/11/04 00:11:25;;;;;;;1.93;0.83;;;14.60;94.80;;;;;;5085096;28;20275;-73
2021/11/04 00:13:52;;;;;;;1.63;1.53;;;14.60;94.90;;;;;;5068810;28;20296;-73
2021/11/04 00:16:19;;;;;;;1.47;1.40;;;14.60;94.90;;;;;;5064707;28;20227;-72
2021/11/04 00:18:46;;;;;;;1.40;0.80;;;14.60;94.90;;;;;;5082610;28;20563;-72
2021/11/04 00:21:13;;;;;;;2.00;0.83;;;14.60;94.90;;;;;;5064616;28;20600;-72
2021/11/04 00:23:40;;;;;;;0.27;0.27;;;14.60;94.90;;;;;;5081841;28;20233;-72
2021/11/04 00:26:07;;;;;;;2.73;1.60;;;14.60;94.90;;;;;;5067264;28;20213;-72
2021/11/04 00:28:35;;;;;;;0.83;0.83;;;14.60;94.90;;;;;;5084774;28;20210;-72
2021/11/04 00:31:02;;;;;;;2.87;1.77;;;14.60;95.00;;;;;;5081696;28;20240;-72
2021/11/04 00:33:29;;;;;;;0.93;0.87;;;14.60;95.00;;;;;;5082937;28;20229;-72
2021/11/04 00:35:56;;;;;;;0.90;0.90;;;14.60;95.00;;;;;;5082764;28;20281;-72
2021/11/04 00:38:23;;;;;;;0.63;0.63;;;14.60;95.00;;;;;;5087600;28;20225;-73
2021/11/04 00:40:50;;;;;;;3.00;1.87;;;14.60;95.00;;;;;;5093190;28;20237;-73
2021/11/04 00:43:17;;;;;;;0.60;0.60;;;14.60;95.00;;;;;;5103272;28;20290;-72
2021/11/04 00:45:44;;;;;;;0.87;0.87;;;14.70;95.00;;;;;;5102383;28;20211;-72
2021/11/04 00:48:11;;;;;;;1.70;1.60;;;14.60;95.00;;;;;;5106394;28;20213;-72
2021/11/04 00:50:38;;;;;;;0.87;0.87;;;14.60;95.00;;;;;;5105683;28;20626;-70
2021/11/04 00:53:05;;;;;;;1.40;0.90;;;14.60;95.00;;;;;;5106012;28;20286;-70
2021/11/04 00:55:32;;;;;;;0.30;0.30;;;14.60;95.00;;;;;;5105514;28;20213;-70
2021/11/04 00:57:59;;;;;;;1.40;1.30;;;14.60;95.00;;;;;;5085391;28;20215;-70
2021/11/04 01:00:26;;;;;;;0.47;0.47;;;14.60;95.00;;;;;;5101324;28;20263;-70
2021/11/04 01:02:53;;;;;;;1.00;0.97;;;14.60;95.00;;;;;;5106553;27;20245;-70
2021/11/04 01:05:20;;;;;;;1.60;1.50;;;14.60;95.00;;;;;;5085221;28;20223;-70
2021/11/04 01:07:47;;;;;;;1.77;1.67;;;14.60;95.00;;;;;;5102894;28;20225;-70
2021/11/04 01:10:14;;;;;;;1.00;1.00;;;14.60;95.00;;;;;;5086188;28;20598;-70
2021/11/04 01:12:41;;;;;;;0.20;0.20;;;14.60;95.00;;;;;;5104844;28;20278;-70
2021/11/04 01:15:09;;;;;;;0.70;0.70;;;14.60;95.00;;;;;;5104996;28;20217;-70
2021/11/04 01:17:36;;;;;;;1.33;1.17;;;14.60;95.00;;;;;;5104835;28;20591;-73
2021/11/04 01:20:04;;;;;;;0.80;0.80;;;14.60;95.00;;;;;;5086624;28;20240;-72
2021/11/04 01:22:31;;;;;;;0.37;0.37;;;14.60;95.00;;;;;;5086435;28;20450;-72
2021/11/04 01:24:58;;;;;;;5.10;2.27;;;14.60;95.00;;;;;;5086733;28;20238;-72
2021/11/04 01:27:25;;;;;;;4.00;0.83;;;14.60;95.00;;;;;;5101037;28;20249;-72
2021/11/04 01:29:52;;;;;;;0.20;0.20;;;14.60;95.00;;;;;;5084710;28;20620;-72
2021/11/04 01:32:19;;;;;;;0.57;0.57;;;14.60;95.00;;;;;;5102541;28;20201;-72
2021/11/04 01:34:46;;;;;;;1.10;1.07;;;14.50;94.90;;;;;;5086638;28;20217;-72
2021/11/04 01:37:13;;;;;;;0.20;0.20;;;14.50;94.90;;;;;;5100414;28;20208;-72
2021/11/04 01:39:40;;;;;;;0.73;0.63;;;14.50;94.90;;;;;;5086865;28;20220;-72
2021/11/04 01:42:08;;;;;;;0.87;0.77;;;14.50;95.00;;;;;;5082350;28;20217;-72
2021/11/04 01:44:35;;;;;;;1.60;0.23;;;14.50;95.00;;;;;;5083204;28;20244;-72
2021/11/04 01:47:02;;;;;;;0.77;0.77;;;14.40;95.00;;;;;;5082383;28;20659;-72
2021/11/04 01:49:30;;;;;;;0.57;0.57;;;14.40;95.00;;;;;;5083104;28;20209;-72
2021/11/04 01:51:58;;;;;;;1.20;0.83;;;14.50;95.00;;;;;;5064761;28;20209;-72
2021/11/04 01:54:24;;;;;;;0.63;0.63;;;14.40;95.00;;;;;;5082727;28;20225;-72
2021/11/04 01:56:51;;;;;;;3.10;0.73;;;14.50;95.00;;;;;;5072507;28;20221;-71
2021/11/04 01:59:18;;;;;;;0.30;0.30;;;14.50;95.00;;;;;;5073965;28;20247;-72
2021/11/04 02:01:50;;;;;;;0.60;0.50;;;14.50;95.00;;;;;;5086021;28;20228;-71
2021/11/04 02:04:26;;;;;;;0.27;0.27;;;14.50;95.00;;;;;;5079720;28;20255;-71
2021/11/04 02:07:06;;;;;;;0.80;0.80;;;14.50;94.90;;;;;;5082234;28;20209;-72
2021/11/04 02:09:47;;;;;;;0.60;0.60;;;14.50;94.90;;;;;;5072439;28;20679;-72
2021/11/04 02:12:28;;;;;;;1.10;1.10;;;14.50;94.90;;;;;;5079953;28;20216;-72
2021/11/04 02:14:57;;;;;;;0.80;0.80;;;14.50;94.90;;;;;;5080370;28;20642;-72
2021/11/04 02:17:27;;;;;;;1.63;0.67;;;14.40;94.80;;;;;;5064060;28;20251;-72
2021/11/04 02:19:58;;;;;;;1.07;1.07;;;14.40;94.80;;;;;;5081814;28;20217;-72
2021/11/04 02:22:27;;;;;;;1.37;1.27;;;14.40;94.90;;;;;;5079871;28;20213;-72
2021/11/04 02:25:28;;;;;;;3.30;1.17;;;14.40;94.90;;;;;;5083070;28;20232;-72
2021/11/04 02:27:58;;;;;;;1.60;1.50;;;14.40;95.20;;;;;;5068661;28;20227;-72
2021/11/04 02:30:27;;;;;;;1.17;1.17;;;14.30;94.90;;;;;;5082940;28;20213;-72
2021/11/04 02:32:55;;;;;;;1.03;0.80;;;14.40;94.90;;;;;;5084458;28;20643;-72
2021/11/04 02:35:24;;;;;;;0.67;0.67;;;14.40;94.90;;;;;;5082770;28;20213;-72
2021/11/04 02:37:53;;;;;;;0.40;0.40;;;14.40;94.90;;;;;;5082995;28;20565;-72
2021/11/04 02:40:21;;;;;;;1.93;1.73;;;14.40;94.80;;;;;;5062052;28;20338;-72
2021/11/04 02:42:51;;;;;;;0.37;0.37;;;14.30;94.80;;;;;;5082458;28;20219;-72
2021/11/04 02:45:25;;;;;;;0.93;0.77;;;14.30;94.80;;;;;;5083913;28;20239;-71
2021/11/04 02:47:52;;;;;;;1.80;1.70;;;14.30;94.80;;;;;;5082464;28;20252;-71
2021/11/04 02:50:20;;;;;;;1.20;1.13;;;14.30;94.80;;;;;;5083997;28;20214;-71
2021/11/04 02:52:47;;;;;;;0.30;0.30;;;14.20;94.80;;;;;;5062129;28;20217;-72
2021/11/04 02:55:14;;;;;;;0.10;0.10;;;14.10;94.80;;;;;;5080855;28;20223;-71
2021/11/04 02:57:47;;;;;;;2.73;1.03;;;14.10;94.90;;;;;;5063038;28;20629;-71
2021/11/04 03:00:17;;;;;;;0.30;0.30;;;14.10;94.90;;;;;;5077017;28;20217;-71
2021/11/04 03:02:44;;;;;;;0.93;0.87;;;14.10;94.90;;;;;;5081159;28;20477;-72
2021/11/04 03:05:12;;;;;;;0.60;0.60;;;14.00;94.80;;;;;;5082622;28;20233;-72
2021/11/04 03:07:39;;;;;;;1.50;0.43;;;13.90;94.80;;;;;;5065841;28;20240;-72
2021/11/04 03:10:07;;;;;;;0.97;0.97;;;13.90;94.80;;;;;;5080979;28;20209;-72
2021/11/04 03:12:34;;;;;;;0.93;0.93;;;13.80;94.90;;;;;;5080283;28;20695;-71
2021/11/04 03:15:08;;;;;;;1.30;0.80;;;13.70;94.90;;;;;;5081402;28;20216;-71
2021/11/04 03:17:38;;;;;;;1.23;1.13;;;13.60;94.90;;;;;;5083146;28;20214;-72
2021/11/04 03:20:07;;;;;;;0.70;0.70;;;13.60;94.90;;;;;;5062542;28;20213;-72
2021/11/04 03:22:36;;;;;;;1.60;0.90;;;13.50;95.00;;;;;;5062021;28;20213;-72
2021/11/04 03:25:04;;;;;;;1.53;0.93;;;13.40;95.00;;;;;;5077171;28;20233;-71
2021/11/04 03:27:33;;;;;;;0.97;0.77;;;13.40;95.00;;;;;;5062174;28;20210;-71
2021/11/04 03:30:03;;;;;;;0.30;0.30;;;13.30;94.90;;;;;;5079649;28;20619;-71
2021/11/04 03:32:32;;;;;;;0.40;0.30;;;13.30;94.90;;;;;;5080761;28;20569;-71
2021/11/04 03:35:00;;;;;;;0.43;0.43;;;13.20;94.80;;;;;;5083472;28;20212;-71
2021/11/04 03:37:27;;;;;;;0.10;0.10;;;13.20;94.90;;;;;;5065892;28;20274;-71
2021/11/04 03:39:55;;;;;;;3.30;1.30;;;13.10;95.10;;;;;;5085275;28;20247;-71
2021/11/04 03:42:23;;;;;;;0.70;0.70;;;13.00;94.80;;;;;;5103585;28;20217;-71
2021/11/04 03:44:50;;;;;;;22.57;1.37;;;13.00;94.90;;;;;;5104387;28;20318;-71
2021/11/04 03:47:18;;;;;;;1.37;1.37;;;12.90;94.80;;;;;;5086250;28;20242;-72
2021/11/04 03:49:49;;;;;;;0.63;0.63;;;12.90;94.80;;;;;;5104493;28;20217;-71
2021/11/04 03:52:19;;;;;;;1.50;1.43;;;12.80;94.70;;;;;;5097986;28;20247;-71
2021/11/04 03:54:46;;;;;;;0.27;0.27;;;12.80;94.80;;;;;;5086363;28;20630;-71
2021/11/04 03:57:14;;;;;;;2.50;1.50;;;12.70;94.80;;;;;;5101693;28;20217;-72
2021/11/04 03:59:41;;;;;;;0.87;0.87;;;12.70;94.80;;;;;;5087588;28;20228;-72
2021/11/04 04:02:09;;;;;;;1.17;1.07;;;12.60;94.80;;;;;;5102519;28;20301;-71
2021/11/04 04:04:36;;;;;;;0.60;0.60;;;12.60;94.80;;;;;;5101999;28;20741;-71
2021/11/04 04:07:03;;;;;;;0.77;0.40;;;12.50;94.80;;;;;;5084734;28;20208;-71
2021/11/04 04:09:30;;;;;;;2.07;1.33;;;12.50;94.90;;;;;;5085168;28;20254;-72
2021/11/04 04:11:57;;;;;;;0.20;0.20;;;12.40;94.90;;;;;;5089827;28;20530;-71
2021/11/04 04:14:24;;;;;;;0.83;0.47;;;12.40;94.90;;;;;;5090390;28;20216;-71
2021/11/04 04:16:51;;;;;;;0.70;0.70;;;12.30;95.00;;;;;;5090041;28;20208;-71
2021/11/04 04:19:18;;;;;;;0.10;0.10;;;12.30;95.00;;;;;;5108273;28;20212;-71
2021/11/04 04:21:45;;;;;;;0.43;0.40;;;12.30;95.00;;;;;;5107776;28;20723;-71
2021/11/04 04:24:12;;;;;;;0.57;0.57;;;12.20;95.30;;;;;;5106480;28;20240;-71
2021/11/04 04:26:39;;;;;;;0.30;0.30;;;12.10;95.00;;;;;;5107540;28;20213;-71
2021/11/04 04:29:06;;;;;;;0.93;0.77;;;12.10;95.00;;;;;;5107889;28;20212;-71
2021/11/04 04:31:33;;;;;;;0.30;0.30;;;12.00;95.10;;;;;;5107700;28;20220;-71
2021/11/04 04:34:00;;;;;;;0.10;0.10;;;12.00;95.10;;;;;;5105844;28;20212;-71
2021/11/04 04:36:27;;;;;;;0.10;0.10;;;11.90;95.10;;;;;;5090307;28;20285;-71
2021/11/04 04:38:54;;;;;;;0.73;0.73;;;11.90;95.10;;;;;;5107029;28;20335;-71
2021/11/04 04:41:21;;;;;;;0.67;0.67;;;11.90;95.00;;;;;;5069406;28;20249;-71
2021/11/04 04:43:49;;;;;;;0.00;0.00;;;11.80;95.00;;;;;;5063046;28;20213;-71
2021/11/04 04:46:17;;;;;;;0.20;0.20;;;11.80;95.10;;;;;;5065722;28;20287;-71
2021/11/04 04:48:44;;;;;;;1.07;0.97;;;11.80;95.10;;;;;;5087793;28;20223;-71
2021/11/04 04:51:11;;;;;;;0.10;0.10;;;11.80;95.10;;;;;;5071853;28;20589;-71
2021/11/04 04:53:38;;;;;;;1.23;0.93;;;11.70;95.10;;;;;;5082814;28;20271;-71
2021/11/04 04:56:05;;;;;;;0.90;0.90;;;11.70;95.00;;;;;;5082701;28;20646;-71
2021/11/04 04:58:34;;;;;;;1.73;0.63;;;11.60;95.00;;;;;;5087855;28;20218;-71
2021/11/04 05:01:01;;;;;;;0.10;0.10;;;11.60;94.80;;;;;;5084102;28;20213;-71
2021/11/04 05:03:28;;;;;;;0.33;0.33;;;11.50;94.70;;;;;;5086349;28;20716;-71
2021/11/04 05:05:55;;;;;;;1.00;1.00;;;11.40;94.70;;;;;;5062258;28;20234;-71
2021/11/04 05:08:23;;;;;;;0.83;0.40;;;11.30;94.80;;;;;;5066932;28;20201;-71
2021/11/04 05:10:50;;;;;;;0.57;0.57;;;11.20;94.90;;;;;;5079481;28;20217;-71
2021/11/04 05:13:17;;;;;;;0.30;0.30;;;11.30;94.90;;;;;;5062156;28;20595;-71
2021/11/04 05:15:44;;;;;;;0.17;0.17;;;11.20;94.90;;;;;;5087616;28;20213;-71
2021/11/04 05:18:11;;;;;;;0.27;0.27;;;11.20;94.90;;;;;;5087946;28;20452;-72
2021/11/04 05:20:38;;;;;;;0.60;0.27;;;11.20;94.90;;;;;;5070149;28;20271;-71
2021/11/04 05:23:06;;;;;;;0.60;0.40;;;11.10;94.90;;;;;;5077226;28;20268;-71
2021/11/04 05:25:33;;;;;;;0.77;0.73;;;11.10;94.90;;;;;;5079108;28;20283;-71
2021/11/04 05:28:00;;;;;;;0.47;0.47;;;11.10;94.90;;;;;;5085178;28;20209;-71
2021/11/04 05:30:27;;;;;;;5.43;1.17;;;11.10;94.90;;;;;;5070007;28;20669;-71
2021/11/04 05:32:54;;;;;;;0.20;0.20;;;11.10;94.90;;;;;;5087913;28;20657;-71
2021/11/04 05:35:22;;;;;;;0.20;0.20;;;11.00;94.90;;;;;;5061313;28;20468;-71
2021/11/04 05:37:49;;;;;;;0.63;0.60;;;11.00;94.80;;;;;;5078962;28;20577;-71
2021/11/04 05:40:16;;;;;;;0.80;0.80;;;11.00;94.80;;;;;;5070910;28;20256;-71
2021/11/04 05:42:43;;;;;;;0.23;0.23;;;11.00;94.80;;;;;;5107339;28;20266;-71
2021/11/04 05:45:10;;;;;;;0.53;0.53;;;10.90;94.60;;;;;;5086068;28;20366;-71
2021/11/04 05:47:37;;;;;;;0.37;0.37;;;10.80;94.50;;;;;;5101280;28;20208;-71
2021/11/04 05:50:05;;;;;;;0.33;0.33;;;10.70;94.60;;;;;;5084158;28;20209;-71
2021/11/04 05:52:32;;;;;;;1.00;0.87;;;10.70;94.70;;;;;;5100209;28;20266;-71
2021/11/04 05:55:00;;;;;;;0.10;0.10;;;10.70;94.80;;;;;;5089544;28;20274;-71
2021/11/04 05:57:27;;;;;;;0.30;0.30;;;10.70;94.70;;;;;;5091903;28;20220;-71
2021/11/04 05:59:55;;;;;;;0.20;0.20;;;10.60;94.60;;;;;;5097673;28;20278;-71
2021/11/04 06:02:22;;;;;;;0.10;0.10;;;10.60;94.70;;;;;;5101370;28;20295;-71
2021/11/04 06:04:50;;;;;;;0.40;0.40;;;10.60;94.70;;;;;;5090484;28;20237;-71
2021/11/04 06:07:17;;;;;;;0.10;0.10;;;10.60;94.70;;;;;;5097618;28;20209;-71
2021/11/04 06:09:44;;;;;;;0.60;0.60;;;10.50;94.70;;;;;;5097175;28;20216;-71
2021/11/04 06:12:12;;;;;;;0.47;0.47;;;10.50;94.70;;;;;;5097376;28;20434;-72
2021/11/04 06:14:39;;;;;;;0.57;0.57;;;10.50;94.70;;;;;;5098238;28;20228;-71
2021/11/04 06:17:06;;;;;;;0.10;0.10;;;10.50;94.70;;;;;;5108411;28;20345;-71
2021/11/04 06:19:33;;;;;;;0.10;0.10;;;10.50;94.80;;;;;;5090943;28;20213;-71
2021/11/04 06:22:00;;;;;;;0.20;0.20;;;10.60;94.80;;;;;;5087827;28;20212;-71
2021/11/04 06:24:27;;;;;;;0.93;0.87;;;10.60;94.60;;;;;;5106202;28;20227;-71
2021/11/04 06:26:54;;;;;;;0.60;0.60;;;10.60;94.60;;;;;;5108642;28;20216;-71
2021/11/04 06:29:21;;;;;;;0.30;0.30;;;10.60;94.60;;;;;;5109003;28;20900;-71
2021/11/04 06:31:48;;;;;;;0.53;0.53;;;10.60;94.70;;;;;;5108060;28;20217;-71
2021/11/04 06:34:15;;;;;;;0.10;0.10;;;10.60;94.80;;;;;;5091134;28;20209;-71
2021/11/04 06:36:43;;;;;;;0.43;0.43;;;10.70;94.80;;;;;;5087338;28;20221;-71
2021/11/04 06:39:10;;;;;;;0.20;0.20;;;10.80;94.80;;;;;;5095938;28;20216;-71
2021/11/04 06:41:38;;;;;;;0.67;0.67;;;10.80;94.70;;;;;;5108472;28;20243;-71
2021/11/04 06:44:05;;;;;;;1.03;0.70;;;10.90;94.70;;;;;;5108812;28;20223;-71
2021/11/04 06:46:33;;;;;;;0.30;0.30;;;11.10;94.60;;;;;;5110493;28;20228;-71
2021/11/04 06:49:07;;;;;;;0.67;0.67;;;11.20;94.60;;;;;;5100584;28;20217;-72
2021/11/04 06:51:45;;;;;;;0.23;0.23;;;11.30;94.50;;;;;;5089440;28;20208;-71
2021/11/04 06:54:14;;;;;;;0.40;0.40;;;11.40;94.80;;;;;;5100710;28;20222;-71
2021/11/04 06:56:44;;;;;;;0.30;0.30;;;11.60;94.70;;;;;;5105709;28;20537;-71
2021/11/04 06:59:25;;;;;;;2.73;1.47;;;11.70;94.70;;;;;;5105078;28;20220;-71
2021/11/04 07:01:55;;;;;;;1.70;0.77;;;11.90;94.60;;;;;;5106634;28;20215;-72
2021/11/04 07:04:29;;;;;;;0.27;0.27;;;12.10;94.60;;;;;;5089256;28;20220;-72
2021/11/04 07:09:36;;;;;;;0.50;0.50;;;12.60;94.30;;;;;;5106853;28;20263;-72
2021/11/04 07:12:07;;;;;;;0.67;0.67;;;12.80;94.00;;;;;;5084949;28;20610;-73
2021/11/04 07:14:36;;;;;;;1.47;1.37;;;13.00;93.70;;;;;;5098880;28;20205;-72
2021/11/04 07:17:04;;;;;;;0.40;0.40;;;13.20;93.40;;;;;;5085082;28;20212;-72
2021/11/04 07:19:32;;;;;;;0.80;0.80;;;13.30;93.00;;;;;;5090645;28;20279;-71
2021/11/04 07:22:17;;;;;;;0.10;0.10;;;13.50;92.70;;;;;;5109472;28;20211;-72
2021/11/04 07:25:11;;;;;;;0.30;0.30;;;13.60;92.50;;;;;;5107067;28;20231;-73
2021/11/04 07:27:59;;;;;;;0.00;0.00;;;13.60;92.30;;;;;;5090455;28;20220;-73
2021/11/04 07:30:28;;;;;;;0.10;0.10;;;13.60;92.20;;;;;;5093847;28;20216;-72
2021/11/04 07:33:00;;;;;;;0.30;0.30;;;13.70;91.90;;;;;;5106657;28;20208;-72
2021/11/04 07:35:29;;;;;;;0.20;0.20;;;13.80;91.70;;;;;;5091243;28;20224;-70
2021/11/04 07:37:57;;;;;;;0.93;0.93;;;13.90;91.50;;;;;;5105300;28;20217;-70
2021/11/04 07:40:27;;;;;;;0.10;0.10;;;14.00;91.20;;;;;;5106738;28;20245;-72
2021/11/04 07:42:55;;;;;;;1.03;0.57;;;14.20;90.90;;;;;;5109742;28;20205;-71
2021/11/04 07:45:24;;;;;;;0.10;0.10;;;14.30;90.60;;;;;;5094723;28;20260;-71
2021/11/04 07:47:51;;;;;;;0.10;0.10;;;14.40;90.40;;;;;;5094275;28;20265;-71
2021/11/04 07:50:21;;;;;;;0.10;0.10;;;14.50;90.10;;;;;;5109469;28;20213;-71
2021/11/04 07:52:48;;;;;;;0.10;0.10;;;14.60;89.80;;;;;;5103126;28;20573;-70
2021/11/04 07:55:16;;;;;;;0.10;0.10;;;14.70;89.20;;;;;;5108281;28;20221;-70
2021/11/04 07:57:44;;;;;;;0.57;0.33;;;14.80;88.90;;;;;;5106968;28;20217;-70
2021/11/04 08:00:15;;;;;;;0.03;0.03;;;14.80;88.40;;;;;;5087355;28;20212;-72
2021/11/04 08:02:42;;;;;;;0.27;0.27;;;14.90;87.90;;;;;;5090601;28;20727;-72
2021/11/04 08:05:12;;;;;;;0.07;0.07;;;15.00;87.60;;;;;;5090310;28;20236;-72
2021/11/04 08:07:40;;;;;;;0.97;0.50;;;15.00;87.30;;;;;;5096536;28;20208;-72
2021/11/04 08:10:11;;;;;;;0.10;0.10;;;15.10;86.90;;;;;;5113018;28;20217;-72
2021/11/04 08:12:38;;;;;;;0.27;0.27;;;15.20;86.50;;;;;;5088906;28;20209;-73
2021/11/04 08:15:07;;;;;;;1.10;0.30;;;15.20;86.10;;;;;;5090783;28;20213;-73
2021/11/04 08:17:35;;;;;;;1.13;0.93;;;15.30;85.40;;;;;;5088413;28;20205;-72
2021/11/04 08:20:05;;;;;;;0.20;0.20;;;15.40;84.80;;;;;;5106218;28;20311;-72
2021/11/04 08:22:32;;;;;;;0.77;0.43;;;15.50;84.40;;;;;;5093801;28;20219;-72
2021/11/04 08:24:59;;;;;;;0.10;0.10;;;15.50;83.80;;;;;;5078936;28;20208;-72
2021/11/04 08:27:28;;;;;;;0.10;0.10;;;15.70;83.50;;;;;;5078853;28;20219;-72
2021/11/04 08:29:55;;;;;;;9.43;1.10;;;15.80;83.10;;;;;;5106809;28;20248;-72
2021/11/04 08:32:22;;;;;;;1.13;0.47;;;15.80;81.90;;;;;;5112873;28;20208;-72
2021/11/04 08:34:49;;;;;;;0.10;0.10;;;15.90;81.10;;;;;;5110072;28;20238;-72
2021/11/04 08:37:16;;;;;;;0.20;0.20;;;15.80;81.20;;;;;;5113308;28;20602;-72
2021/11/04 08:39:43;;;;;;;0.20;0.20;;;15.80;80.70;;;;;;5113440;28;20578;-72
2021/11/04 08:42:12;;;;;;;0.47;0.30;;;15.80;80.70;;;;;;5075120;28;20217;-72
2021/11/04 08:44:39;;;;;;;0.10;0.10;;;15.80;81.00;;;;;;5092520;28;20340;-72
2021/11/04 08:47:08;;;;;;;0.20;0.20;;;15.90;80.50;;;;;;5074711;28;20327;-72
2021/11/04 08:49:36;;;;;;;0.10;0.10;;;16.10;80.00;;;;;;5058694;28;20240;-73
2021/11/04 08:52:03;;;;;;;0.63;0.63;;;16.20;79.10;;;;;;5087809;28;20680;-72
2021/11/04 08:54:32;;;;;;;0.10;0.10;;;16.30;78.60;;;;;;5069431;28;20525;-72
2021/11/04 08:56:59;;;;;;;0.67;0.30;;;16.30;78.10;;;;;;5075240;28;20217;-72
2021/11/04 08:59:26;;;;;;;0.10;0.10;;;16.40;77.80;;;;;;5081470;28;20211;-72
2021/11/04 09:01:54;;;;;;;0.23;0.23;;;16.40;77.40;;;;;;5076206;28;20221;-72
2021/11/04 09:04:21;;;;;;;1.80;0.40;;;16.50;76.40;;;;;;5093126;28;20224;-72
2021/11/04 09:06:51;;;;;;;0.20;0.20;;;16.50;76.20;;;;;;5075311;28;20237;-73
2021/11/04 09:09:18;;;;;;;0.10;0.10;;;16.60;75.70;;;;;;5070037;28;20270;-73
2021/11/04 09:11:45;;;;;;;0.10;0.10;;;16.60;75.70;;;;;;5082040;28;20218;-71
2021/11/04 09:14:13;;;;;;;0.50;0.50;;;16.70;75.40;;;;;;5066217;28;20209;-71
2021/11/04 09:16:41;;;;;;;0.10;0.10;;;16.70;73.50;;;;;;5092585;28;20213;-71
2021/11/04 09:19:09;;;;;;;0.10;0.10;;;16.70;72.20;;;;;;5093035;28;20662;-71
2021/11/04 09:21:36;;;;;;;0.10;0.10;;;16.70;72.90;;;;;;5092603;28;20213;-71
2021/11/04 09:24:04;;;;;;;0.10;0.10;;;16.70;73.20;;;;;;5086466;28;20209;-71
2021/11/04 09:26:31;;;;;;;0.97;0.63;;;16.80;73.50;;;;;;5084209;28;20240;-71
2021/11/04 09:28:58;;;;;;;0.70;0.53;;;16.80;73.40;;;;;;5074155;28;20594;-71
2021/11/04 09:31:25;;;;;;;0.10;0.10;;;16.90;73.50;;;;;;5086757;28;20209;-71
2021/11/04 09:33:57;;;;;;;0.30;0.30;;;17.00;71.80;;;;;;5093349;28;20221;-71
2021/11/04 09:36:29;;;;;;;0.40;0.40;;;17.00;71.00;;;;;;5092969;28;20697;-71
2021/11/04 09:39:00;;;;;;;0.37;0.37;;;17.00;71.40;;;;;;5066974;28;20221;-71
2021/11/04 09:41:27;;;;;;;0.10;0.10;;;17.00;71.60;;;;;;5087599;28;20252;-71
2021/11/04 09:43:57;;;;;;;0.10;0.10;;;17.10;71.60;;;;;;5075757;28;20216;-71
2021/11/04 09:46:24;;;;;;;0.20;0.20;;;17.20;71.60;;;;;;5082999;28;20696;-71
2021/11/04 09:48:52;;;;;;;0.13;0.13;;;17.30;71.60;;;;;;5095535;28;20208;-71
2021/11/04 09:51:20;;;;;;;0.00;0.00;;;17.50;71.10;;;;;;5106106;28;20201;-71
2021/11/04 09:53:50;;;;;;;0.40;0.40;;;17.60;70.60;;;;;;5087376;28;20223;-70
2021/11/04 09:56:18;;;;;;;0.10;0.10;;;17.70;70.40;;;;;;5095271;28;20218;-70
2021/11/04 09:58:46;;;;;;;0.20;0.20;;;17.80;70.20;;;;;;5112974;28;20216;-72
2021/11/04 10:01:25;;;;;;;0.10;0.10;;;17.80;66.90;;;;;;5095340;28;20293;-71
2021/11/04 10:03:59;;;;;;;0.00;0.00;;;17.80;67.80;;;;;;5092149;28;20226;-71
2021/11/04 10:06:31;;;;;;;0.40;0.40;;;17.80;68.00;;;;;;5112835;28;20224;-71
2021/11/04 10:09:05;;;;;;;0.33;0.33;;;17.80;66.60;;;;;;5104845;28;20216;-71
2021/11/04 10:11:35;;;;;;;0.10;0.10;;;17.80;67.20;;;;;;5092680;28;20208;-71
2021/11/04 10:14:05;;;;;;;0.20;0.20;;;18.00;67.10;;;;;;5112701;28;20231;-71
2021/11/04 10:16:34;;;;;;;0.33;0.27;;;18.10;66.30;;;;;;5100909;28;20209;-71
2021/11/04 10:19:13;;;;;;;0.30;0.30;;;18.20;66.60;;;;;;5091387;28;20304;-71
2021/11/04 10:21:45;;;;;;;0.10;0.10;;;18.30;66.50;;;;;;5112560;28;20221;-71
2021/11/04 10:24:19;;;;;;;0.10;0.10;;;18.30;66.20;;;;;;5090932;28;20295;-71
2021/11/04 10:26:53;;;;;;;0.30;0.30;;;18.30;66.20;;;;;;5088327;28;20228;-71
2021/11/04 10:29:23;;;;;;;0.33;0.33;;;18.40;65.90;;;;;;5080823;28;20209;-71
2021/11/04 10:31:54;;;;;;;0.13;0.13;;;18.40;64.60;;;;;;5104381;28;20204;-71
2021/11/04 10:34:28;;;;;;;0.27;0.27;;;18.40;64.30;;;;;;5078963;28;20513;-71
2021/11/04 10:37:08;;;;;;;0.00;0.00;;;18.50;65.00;;;;;;5092846;28;20649;-71
2021/11/04 10:39:38;;;;;;;0.27;0.27;;;18.60;64.30;;;;;;5075845;28;20216;-71
2021/11/04 10:42:06;;;;;;;0.00;0.00;;;18.60;63.80;;;;;;5092382;28;20251;-71
2021/11/04 10:44:33;;;;;;;0.57;0.57;;;18.60;63.70;;;;;;5093125;28;20220;-71
2021/11/04 10:47:01;;;;;;;0.10;0.10;;;18.60;63.50;;;;;;5093049;28;20239;-71
2021/11/04 10:49:50;;;;;;;0.20;0.20;;;18.60;62.20;;;;;;5093240;28;20220;-71
2021/11/04 10:52:23;;;;;;;0.30;0.30;;;18.60;62.00;;;;;;5110167;28;20208;-71
2021/11/04 10:54:52;;;;;;;0.57;0.57;;;18.60;63.30;;;;;;5100115;28;20626;-71
2021/11/04 10:57:52;;;;;;;0.57;0.43;;;18.80;63.30;;;;;;5092985;28;20217;-71
2021/11/04 11:00:24;;;;;;;0.10;0.10;;;18.90;62.10;;;;;;5023830;28;20224;-71
2021/11/04 11:02:57;;;;;;;0.10;0.10;;;18.90;63.00;;;;;;5093966;28;20665;-71
2021/11/04 11:05:28;;;;;;;0.10;0.10;;;19.00;62.60;;;;;;5108170;28;20239;-71
2021/11/04 11:07:57;;;;;;;0.10;0.10;;;19.10;62.60;;;;;;5109849;28;20231;-71
2021/11/04 11:10:24;;;;;;;0.10;0.10;;;19.10;61.70;;;;;;5097361;28;20212;-71
2021/11/04 11:12:51;;;;;;;0.20;0.20;;;19.10;62.10;;;;;;5079870;28;20236;-71
2021/11/04 11:15:18;;;;;;;0.10;0.10;;;19.30;63.00;;;;;;5111254;28;20216;-71
2021/11/04 11:17:47;;;;;;;0.20;0.20;;;19.50;63.10;;;;;;5100968;28;20223;-71
2021/11/04 11:20:17;;;;;;;0.10;0.10;;;19.40;61.50;;;;;;5114391;28;20550;-71
2021/11/04 11:22:44;;;;;;;0.20;0.20;;;19.20;61.80;;;;;;5114572;28;20212;-71
2021/11/04 11:25:12;;;;;;;4.53;1.70;;;18.90;61.40;;;;;;5114986;28;20224;-71
2021/11/04 11:27:39;;;;;;;0.10;0.10;;;18.60;61.60;;;;;;5114275;28;20236;-70
2021/11/04 11:30:13;;;;;;;0.53;0.30;;;18.30;62.80;;;;;;5100700;28;20382;-70
2021/11/04 11:32:42;;;;;;;0.10;0.10;;;18.00;62.60;;;;;;5097542;28;20637;-70
2021/11/04 11:35:22;;;;;;;0.10;0.10;;;17.80;64.20;;;;;;5099421;28;20217;-70
2021/11/04 11:37:55;;;;;;;0.10;0.10;;;17.70;64.90;;;;;;5083536;28;20269;-70
2021/11/04 11:40:28;;;;;;;0.10;0.10;;;17.50;65.20;;;;;;5107394;28;20756;-70
2021/11/04 11:42:56;;;;;;;0.10;0.10;;;17.30;65.40;;;;;;5114151;28;20212;-71
2021/11/04 11:45:24;;;;;;;0.00;0.00;;;17.30;66.20;;;;;;5096875;28;20212;-71
2021/11/04 11:47:51;;;;;;;0.10;0.10;;;17.30;65.80;;;;;;5107483;28;20616;-71
2021/11/04 11:50:29;;;;;;;0.00;0.00;;;17.20;65.40;;;;;;5097678;28;20219;-71
2021/11/04 11:53:11;;;;;;;0.33;0.33;;;17.10;65.50;;;;;;5082448;28;20216;-71
2021/11/04 11:55:45;;;;;;;0.20;0.20;;;17.20;65.70;;;;;;5096882;28;20223;-70
2021/11/04 11:58:26;;;;;;;0.00;0.00;;;17.20;66.70;;;;;;5097974;28;20277;-70
2021/11/04 12:01:01;;;;;;;0.20;0.20;;;17.30;64.80;;;;;;5084166;28;20264;-70
2021/11/04 12:03:37;;;;;;;0.10;0.10;;;17.30;63.00;;;;;;5113237;28;20220;-70
2021/11/04 12:06:24;;;;;;;0.10;0.10;;;17.20;63.00;;;;;;5108978;28;20645;-70
2021/11/04 12:08:53;;;;;;;0.10;0.10;;;17.20;62.60;;;;;;5091583;27;20211;-70
2021/11/04 12:14:24;;;;;;;0.10;0.10;;;17.10;62.60;;;;;;5097653;28;20213;-70
2021/11/04 12:17:04;;;;;;;0.10;0.10;;;17.00;61.20;;;;;;5097420;28;20302;-70
2021/11/04 12:19:53;;;;;;;0.00;0.00;;;17.00;61.40;;;;;;5093843;28;20212;-70
2021/11/04 12:22:39;;;;;;;0.40;0.40;;;17.00;61.00;;;;;;5097730;28;20216;-70
2021/11/04 12:25:10;;;;;;;0.37;0.37;;;17.10;61.70;;;;;;5111918;28;20213;-71
2021/11/04 12:27:42;;;;;;;0.10;0.10;;;17.10;61.90;;;;;;5088281;28;20236;-70
2021/11/04 12:30:25;;;;;;;0.10;0.10;;;17.20;62.80;;;;;;5098459;28;20259;-70
2021/11/04 12:33:03;;;;;;;0.30;0.30;;;17.40;61.40;;;;;;5103443;28;20605;-70
2021/11/04 12:35:52;;;;;;;0.00;0.00;;;17.50;61.50;;;;;;5103183;28;20215;-70
2021/11/04 12:38:39;;;;;;;0.10;0.10;;;17.60;61.90;;;;;;5111927;28;20232;-71
2021/11/04 12:41:16;;;;;;;0.13;0.13;;;17.60;64.20;;;;;;5111653;28;20248;-70
2021/11/04 12:43:48;;;;;;;0.10;0.10;;;17.60;64.40;;;;;;5085777;28;20282;-70
2021/11/04 12:46:24;;;;;;;0.60;0.60;;;17.70;64.70;;;;;;5104449;28;20644;-70
2021/11/04 12:49:03;;;;;;;0.10;0.10;;;17.70;65.30;;;;;;5107312;28;20223;-71
2021/11/04 12:51:51;;;;;;;0.10;0.10;;;17.60;64.40;;;;;;5098681;28;20292;-70
2021/11/04 12:54:24;;;;;;;0.10;0.10;;;17.60;64.20;;;;;;5108429;27;20272;-70
2021/11/04 12:57:03;;;;;;;0.10;0.10;;;17.60;64.80;;;;;;5084661;28;20597;-70
2021/11/04 12:59:43;;;;;;;0.00;0.00;;;17.50;65.20;;;;;;5099729;28;20238;-70
2021/11/04 13:02:13;;;;;;;0.10;0.10;;;17.50;65.80;;;;;;5103840;28;20557;-71
2021/11/04 13:04:51;;;;;;;0.10;0.10;;;17.50;65.20;;;;;;5098133;28;20251;-71
2021/11/04 13:07:34;;;;;;;0.23;0.23;;;17.60;63.90;;;;;;5100625;28;20247;-71